sensor_id;sensor_type;location;lat;lon;timestamp;pressure;altitude;pressure_sealevel;temperature;humidity
29383;BME280;16365;51.598;7.668;2023-03-16T00:02:12;101320.75;;;9.16;41.99
29383;BME280;16365;51.598;7.668;2023-03-16T00:04:39;101315.00;;;9.13;41.50
29383;BME280;16365;51.598;7.668;2023-03-16T00:07:06;101319.50;;;9.09;41.58
29383;BME280;16365;51.598;7.668;2023-03-16T00:09:32;101317.03;;;9.07;41.57
29383;BME280;16365;51.598;7.668;2023-03-16T00:12:00;101313.22;;;9.03;41.42
29383;BME280;16365;51.598;7.668;2023-03-16T00:14:30;101315.50;;;9.01;42.13
29383;BME280;16365;51.598;7.668;2023-03-16T00:16:57;101319.66;;;8.98;42.35
29383;BME280;16365;51.598;7.668;2023-03-16T00:19:23;101316.41;;;8.96;42.01
29383;BME280;16365;51.598;7.668;2023-03-16T00:21:50;101326.09;;;8.94;41.90
29383;BME280;16365;51.598;7.668;2023-03-16T00:24:17;101319.25;;;8.91;41.47
29383;BME280;16365;51.598;7.668;2023-03-16T00:26:44;101317.91;;;8.89;41.67
29383;BME280;16365;51.598;7.668;2023-03-16T00:29:10;101318.81;;;8.84;41.69
29383;BME280;16365;51.598;7.668;2023-03-16T00:31:37;101311.94;;;8.82;41.58
29383;BME280;16365;51.598;7.668;2023-03-16T00:34:04;101303.13;;;8.80;41.64
29383;BME280;16365;51.598;7.668;2023-03-16T00:36:30;101298.22;;;8.77;41.72
29383;BME280;16365;51.598;7.668;2023-03-16T00:38:59;101298.50;;;8.75;41.78
29383;BME280;16365;51.598;7.668;2023-03-16T00:41:25;101298.81;;;8.73;41.79
29383;BME280;16365;51.598;7.668;2023-03-16T00:43:51;101298.56;;;8.70;41.69
29383;BME280;16365;51.598;7.668;2023-03-16T00:46:18;101303.09;;;8.66;42.30
29383;BME280;16365;51.598;7.668;2023-03-16T00:48:45;101296.19;;;8.63;42.22
29383;BME280;16365;51.598;7.668;2023-03-16T00:51:13;101289.03;;;8.62;42.64
29383;BME280;16365;51.598;7.668;2023-03-16T00:53:41;101288.81;;;8.59;41.86
29383;BME280;16365;51.598;7.668;2023-03-16T00:56:09;101284.72;;;8.56;42.18
29383;BME280;16365;51.598;7.668;2023-03-16T00:58:36;101286.94;;;8.54;41.91
29383;BME280;16365;51.598;7.668;2023-03-16T01:01:03;101285.63;;;8.52;42.11
29383;BME280;16365;51.598;7.668;2023-03-16T01:03:31;101288.97;;;8.48;42.57
29383;BME280;16365;51.598;7.668;2023-03-16T01:06:01;101295.91;;;8.46;42.51
29383;BME280;16365;51.598;7.668;2023-03-16T01:08:28;101294.88;;;8.42;42.24
29383;BME280;16365;51.598;7.668;2023-03-16T01:10:54;101296.59;;;8.38;42.26
29383;BME280;16365;51.598;7.668;2023-03-16T01:13:21;101296.88;;;8.36;42.29
29383;BME280;16365;51.598;7.668;2023-03-16T01:15:51;101299.41;;;8.33;41.94
29383;BME280;16365;51.598;7.668;2023-03-16T01:18:17;101298.03;;;8.30;42.81
29383;BME280;16365;51.598;7.668;2023-03-16T01:20:45;101293.66;;;8.29;42.11
29383;BME280;16365;51.598;7.668;2023-03-16T01:23:16;101299.47;;;8.28;42.23
29383;BME280;16365;51.598;7.668;2023-03-16T01:25:43;101297.00;;;8.26;42.69
29383;BME280;16365;51.598;7.668;2023-03-16T01:28:09;101298.94;;;8.25;42.17
29383;BME280;16365;51.598;7.668;2023-03-16T01:30:35;101293.22;;;8.22;42.51
29383;BME280;16365;51.598;7.668;2023-03-16T01:33:02;101294.91;;;8.18;42.56
29383;BME280;16365;51.598;7.668;2023-03-16T01:35:28;101283.34;;;8.16;42.10
29383;BME280;16365;51.598;7.668;2023-03-16T01:37:55;101272.34;;;8.11;42.51
29383;BME280;16365;51.598;7.668;2023-03-16T01:40:21;101274.59;;;8.09;42.36
29383;BME280;16365;51.598;7.668;2023-03-16T01:42:48;101266.91;;;8.06;42.25
29383;BME280;16365;51.598;7.668;2023-03-16T01:48:09;101255.34;;;8.04;42.72
29383;BME280;16365;51.598;7.668;2023-03-16T01:50:35;101245.72;;;8.01;42.25
29383;BME280;16365;51.598;7.668;2023-03-16T01:53:01;101239.38;;;8.01;42.28
29383;BME280;16365;51.598;7.668;2023-03-16T01:55:28;101238.56;;;8.00;42.84
29383;BME280;16365;51.598;7.668;2023-03-16T01:57:54;101238.03;;;7.98;42.35
29383;BME280;16365;51.598;7.668;2023-03-16T02:00:21;101246.31;;;7.98;42.65
29383;BME280;16365;51.598;7.668;2023-03-16T02:03:01;101254.06;;;7.96;42.57
29383;BME280;16365;51.598;7.668;2023-03-16T02:06:17;101253.00;;;7.92;42.59
29383;BME280;16365;51.598;7.668;2023-03-16T02:08:17;101250.03;;;7.88;42.85
29383;BME280;16365;51.598;7.668;2023-03-16T02:10:44;101243.16;;;7.86;42.54
29383;BME280;16365;51.598;7.668;2023-03-16T02:13:11;101241.84;;;7.83;42.88
29383;BME280;16365;51.598;7.668;2023-03-16T02:15:37;101229.13;;;7.82;42.24
29383;BME280;16365;51.598;7.668;2023-03-16T02:18:04;101229.13;;;7.82;43.08
29383;BME280;16365;51.598;7.668;2023-03-16T02:20:54;101228.03;;;7.83;42.37
29383;BME280;16365;51.598;7.668;2023-03-16T02:23:22;101224.97;;;7.85;43.11
29383;BME280;16365;51.598;7.668;2023-03-16T02:26:06;101207.78;;;7.88;43.23
29383;BME280;16365;51.598;7.668;2023-03-16T02:28:37;101213.53;;;7.91;42.89
29383;BME280;16365;51.598;7.668;2023-03-16T02:31:10;101196.09;;;7.96;42.85
29383;BME280;16365;51.598;7.668;2023-03-16T02:33:37;101205.72;;;7.98;42.88
29383;BME280;16365;51.598;7.668;2023-03-16T02:36:04;101207.88;;;8.02;42.70
29383;BME280;16365;51.598;7.668;2023-03-16T02:38:30;101207.28;;;8.05;42.71
29383;BME280;16365;51.598;7.668;2023-03-16T02:41:00;101208.34;;;8.09;43.18
29383;BME280;16365;51.598;7.668;2023-03-16T02:43:34;101204.94;;;8.12;43.25
29383;BME280;16365;51.598;7.668;2023-03-16T02:46:02;101201.59;;;8.15;42.80
29383;BME280;16365;51.598;7.668;2023-03-16T02:48:32;101193.81;;;8.17;42.81
29383;BME280;16365;51.598;7.668;2023-03-16T02:51:00;101194.06;;;8.20;42.94
29383;BME280;16365;51.598;7.668;2023-03-16T02:53:27;101192.66;;;8.23;42.74
29383;BME280;16365;51.598;7.668;2023-03-16T02:55:53;101193.69;;;8.27;42.86
29383;BME280;16365;51.598;7.668;2023-03-16T02:58:19;101190.31;;;8.30;42.86
29383;BME280;16365;51.598;7.668;2023-03-16T03:00:46;101195.75;;;8.35;42.95
29383;BME280;16365;51.598;7.668;2023-03-16T03:03:12;101197.66;;;8.40;42.94
29383;BME280;16365;51.598;7.668;2023-03-16T03:05:39;101189.25;;;8.45;43.48
29383;BME280;16365;51.598;7.668;2023-03-16T03:08:05;101197.47;;;8.50;43.18
29383;BME280;16365;51.598;7.668;2023-03-16T03:10:32;101196.28;;;8.56;43.30
29383;BME280;16365;51.598;7.668;2023-03-16T03:12:58;101193.13;;;8.63;43.38
29383;BME280;16365;51.598;7.668;2023-03-16T03:15:25;101185.56;;;8.68;43.37
29383;BME280;16365;51.598;7.668;2023-03-16T03:17:51;101189.34;;;8.72;42.87
29383;BME280;16365;51.598;7.668;2023-03-16T03:20:17;101187.00;;;8.80;42.98
29383;BME280;16365;51.598;7.668;2023-03-16T03:22:46;101181.38;;;8.85;43.21
29383;BME280;16365;51.598;7.668;2023-03-16T03:25:13;101177.41;;;8.91;43.19
29383;BME280;16365;51.598;7.668;2023-03-16T03:27:41;101186.44;;;8.96;42.19
29383;BME280;16365;51.598;7.668;2023-03-16T03:30:08;101174.44;;;9.01;42.48
29383;BME280;16365;51.598;7.668;2023-03-16T03:32:35;101181.19;;;9.09;42.20
29383;BME280;16365;51.598;7.668;2023-03-16T03:35:01;101173.66;;;9.14;42.76
29383;BME280;16365;51.598;7.668;2023-03-16T03:37:28;101168.00;;;9.19;42.43
29383;BME280;16365;51.598;7.668;2023-03-16T03:39:54;101167.09;;;9.24;42.52
29383;BME280;16365;51.598;7.668;2023-03-16T03:42:20;101170.25;;;9.31;42.58
29383;BME280;16365;51.598;7.668;2023-03-16T03:44:49;101168.50;;;9.35;42.69
29383;BME280;16365;51.598;7.668;2023-03-16T03:47:16;101167.59;;;9.40;42.30
29383;BME280;16365;51.598;7.668;2023-03-16T03:49:43;101153.63;;;9.45;42.14
29383;BME280;16365;51.598;7.668;2023-03-16T03:52:09;101151.56;;;9.50;42.00
29383;BME280;16365;51.598;7.668;2023-03-16T03:54:36;101155.38;;;9.55;42.73
29383;BME280;16365;51.598;7.668;2023-03-16T03:57:03;101152.47;;;9.60;42.74
29383;BME280;16365;51.598;7.668;2023-03-16T03:59:29;101152.38;;;9.65;42.58
29383;BME280;16365;51.598;7.668;2023-03-16T04:01:56;101146.22;;;9.68;42.50
29383;BME280;16365;51.598;7.668;2023-03-16T04:04:22;101151.13;;;9.71;42.10
29383;BME280;16365;51.598;7.668;2023-03-16T04:06:49;101150.19;;;9.75;42.43
29383;BME280;16365;51.598;7.668;2023-03-16T04:09:16;101150.38;;;9.79;41.86
29383;BME280;16365;51.598;7.668;2023-03-16T04:11:42;101139.81;;;9.81;41.99
29383;BME280;16365;51.598;7.668;2023-03-16T04:14:09;101141.16;;;9.84;41.61
29383;BME280;16365;51.598;7.668;2023-03-16T04:16:35;101141.34;;;9.87;42.24
29383;BME280;16365;51.598;7.668;2023-03-16T04:19:02;101139.06;;;9.89;42.00
29383;BME280;16365;51.598;7.668;2023-03-16T04:21:29;101134.53;;;9.93;41.91
29383;BME280;16365;51.598;7.668;2023-03-16T04:23:56;101135.03;;;9.95;41.92
29383;BME280;16365;51.598;7.668;2023-03-16T04:26:22;101128.06;;;9.98;42.09
29383;BME280;16365;51.598;7.668;2023-03-16T04:28:50;101133.81;;;10.01;41.71
29383;BME280;16365;51.598;7.668;2023-03-16T04:31:18;101136.25;;;10.03;41.62
29383;BME280;16365;51.598;7.668;2023-03-16T04:33:44;101129.25;;;10.05;41.52
29383;BME280;16365;51.598;7.668;2023-03-16T04:36:11;101128.31;;;10.10;41.88
29383;BME280;16365;51.598;7.668;2023-03-16T04:38:37;101127.19;;;10.11;41.43
29383;BME280;16365;51.598;7.668;2023-03-16T04:41:04;101117.44;;;10.14;42.00
29383;BME280;16365;51.598;7.668;2023-03-16T04:43:31;101108.78;;;10.15;41.53
29383;BME280;16365;51.598;7.668;2023-03-16T04:46:00;101106.53;;;10.17;41.77
29383;BME280;16365;51.598;7.668;2023-03-16T04:48:27;101115.34;;;10.19;41.67
29383;BME280;16365;51.598;7.668;2023-03-16T04:50:54;101119.44;;;10.22;41.29
29383;BME280;16365;51.598;7.668;2023-03-16T04:53:20;101110.81;;;10.23;41.67
29383;BME280;16365;51.598;7.668;2023-03-16T04:55:47;101097.50;;;10.25;41.61
29383;BME280;16365;51.598;7.668;2023-03-16T04:58:13;101100.75;;;10.27;41.60
29383;BME280;16365;51.598;7.668;2023-03-16T05:00:39;101102.41;;;10.28;41.45
29383;BME280;16365;51.598;7.668;2023-03-16T05:03:07;101101.25;;;10.29;41.43
29383;BME280;16365;51.598;7.668;2023-03-16T05:05:38;101097.84;;;10.33;41.59
29383;BME280;16365;51.598;7.668;2023-03-16T05:08:05;101096.72;;;10.34;41.54
29383;BME280;16365;51.598;7.668;2023-03-16T05:10:32;101090.88;;;10.35;41.63
29383;BME280;16365;51.598;7.668;2023-03-16T05:13:00;101081.41;;;10.36;41.77
29383;BME280;16365;51.598;7.668;2023-03-16T05:15:27;101081.91;;;10.38;41.59
29383;BME280;16365;51.598;7.668;2023-03-16T05:17:54;101085.50;;;10.39;41.34
29383;BME280;16365;51.598;7.668;2023-03-16T05:20:21;101076.88;;;10.40;41.45
29383;BME280;16365;51.598;7.668;2023-03-16T05:22:47;101081.28;;;10.41;41.24
29383;BME280;16365;51.598;7.668;2023-03-16T05:25:14;101082.91;;;10.42;41.39
29383;BME280;16365;51.598;7.668;2023-03-16T05:27:41;101082.28;;;10.45;41.31
29383;BME280;16365;51.598;7.668;2023-03-16T05:30:08;101079.53;;;10.45;41.51
29383;BME280;16365;51.598;7.668;2023-03-16T05:32:36;101080.00;;;10.47;41.59
29383;BME280;16365;51.598;7.668;2023-03-16T05:35:03;101075.28;;;10.48;41.01
29383;BME280;16365;51.598;7.668;2023-03-16T05:37:30;101082.44;;;10.49;41.11
29383;BME280;16365;51.598;7.668;2023-03-16T05:39:56;101084.94;;;10.50;41.33
29383;BME280;16365;51.598;7.668;2023-03-16T05:42:24;101085.41;;;10.52;41.60
29383;BME280;16365;51.598;7.668;2023-03-16T05:44:52;101087.88;;;10.54;41.23
29383;BME280;16365;51.598;7.668;2023-03-16T05:47:19;101088.38;;;10.56;41.22
29383;BME280;16365;51.598;7.668;2023-03-16T05:49:45;101082.50;;;10.58;41.38
29383;BME280;16365;51.598;7.668;2023-03-16T05:52:12;101082.19;;;10.59;41.41
29383;BME280;16365;51.598;7.668;2023-03-16T05:54:38;101089.88;;;10.62;41.51
29383;BME280;16365;51.598;7.668;2023-03-16T05:57:05;101084.31;;;10.62;41.12
29383;BME280;16365;51.598;7.668;2023-03-16T05:59:32;101099.81;;;10.63;41.21
29383;BME280;16365;51.598;7.668;2023-03-16T06:01:58;101092.34;;;10.64;41.01
29383;BME280;16365;51.598;7.668;2023-03-16T06:04:25;101110.28;;;10.66;41.16
29383;BME280;16365;51.598;7.668;2023-03-16T06:06:52;101096.09;;;10.68;41.36
29383;BME280;16365;51.598;7.668;2023-03-16T06:09:18;101095.78;;;10.69;41.38
29383;BME280;16365;51.598;7.668;2023-03-16T06:11:45;101085.50;;;10.70;41.25
29383;BME280;16365;51.598;7.668;2023-03-16T06:14:11;101090.72;;;10.71;41.41
29383;BME280;16365;51.598;7.668;2023-03-16T06:16:38;101083.72;;;10.74;41.16
29383;BME280;16365;51.598;7.668;2023-03-16T06:19:04;101087.00;;;10.76;41.34
29383;BME280;16365;51.598;7.668;2023-03-16T06:21:31;101081.94;;;10.78;41.23
29383;BME280;16365;51.598;7.668;2023-03-16T06:23:57;101091.91;;;10.79;40.92
29383;BME280;16365;51.598;7.668;2023-03-16T06:26:23;101087.19;;;10.79;41.19
29383;BME280;16365;51.598;7.668;2023-03-16T06:28:50;101082.94;;;10.82;40.97
29383;BME280;16365;51.598;7.668;2023-03-16T06:31:17;101083.44;;;10.84;41.38
29383;BME280;16365;51.598;7.668;2023-03-16T06:33:43;101090.28;;;10.87;41.11
29383;BME280;16365;51.598;7.668;2023-03-16T06:36:10;101096.03;;;10.90;41.21
29383;BME280;16365;51.598;7.668;2023-03-16T06:38:37;101090.16;;;10.92;41.39
29383;BME280;16365;51.598;7.668;2023-03-16T06:41:03;101086.75;;;10.95;41.32
29383;BME280;16365;51.598;7.668;2023-03-16T06:43:30;101085.25;;;10.97;41.41
29383;BME280;16365;51.598;7.668;2023-03-16T06:45:57;101080.72;;;11.01;41.48
29383;BME280;16365;51.598;7.668;2023-03-16T06:48:25;101077.31;;;11.04;41.35
29383;BME280;16365;51.598;7.668;2023-03-16T06:50:51;101083.34;;;11.06;41.48
29383;BME280;16365;51.598;7.668;2023-03-16T06:53:17;101077.16;;;11.10;40.73
29383;BME280;16365;51.598;7.668;2023-03-16T06:55:44;101084.50;;;11.14;40.89
29383;BME280;16365;51.598;7.668;2023-03-16T06:58:10;101088.59;;;11.17;40.78
29383;BME280;16365;51.598;7.668;2023-03-16T07:00:37;101076.03;;;11.19;40.71
29383;BME280;16365;51.598;7.668;2023-03-16T07:03:03;101085.84;;;11.25;41.31
29383;BME280;16365;51.598;7.668;2023-03-16T07:05:29;101085.19;;;11.28;41.18
29383;BME280;16365;51.598;7.668;2023-03-16T07:07:56;101088.16;;;11.32;41.15
29383;BME280;16365;51.598;7.668;2023-03-16T07:10:23;101083.56;;;11.36;40.64
29383;BME280;16365;51.598;7.668;2023-03-16T07:12:50;101091.25;;;11.39;41.23
29383;BME280;16365;51.598;7.668;2023-03-16T07:15:16;101091.91;;;11.45;41.13
29383;BME280;16365;51.598;7.668;2023-03-16T07:17:43;101083.75;;;11.48;41.48
29383;BME280;16365;51.598;7.668;2023-03-16T07:20:11;101093.88;;;11.53;41.06
29383;BME280;16365;51.598;7.668;2023-03-16T07:22:38;101095.69;;;11.57;41.17
29383;BME280;16365;51.598;7.668;2023-03-16T07:25:05;101096.34;;;11.63;41.48
29383;BME280;16365;51.598;7.668;2023-03-16T07:27:31;101090.28;;;11.70;41.22
29383;BME280;16365;51.598;7.668;2023-03-16T07:29:58;101098.16;;;11.76;41.30
29383;BME280;16365;51.598;7.668;2023-03-16T07:32:30;101100.16;;;11.85;40.85
29383;BME280;16365;51.598;7.668;2023-03-16T07:34:57;101098.16;;;11.94;40.79
29383;BME280;16365;51.598;7.668;2023-03-16T07:37:24;101101.28;;;12.01;40.87
29383;BME280;16365;51.598;7.668;2023-03-16T07:39:51;101109.63;;;12.09;41.06
29383;BME280;16365;51.598;7.668;2023-03-16T07:42:17;101105.53;;;12.16;40.32
29383;BME280;16365;51.598;7.668;2023-03-16T07:44:44;101099.44;;;12.22;41.19
29383;BME280;16365;51.598;7.668;2023-03-16T07:47:11;101100.94;;;12.28;40.81
29383;BME280;16365;51.598;7.668;2023-03-16T07:49:38;101104.00;;;12.35;39.91
29383;BME280;16365;51.598;7.668;2023-03-16T07:52:06;101101.06;;;12.41;40.55
29383;BME280;16365;51.598;7.668;2023-03-16T07:54:33;101096.94;;;12.47;41.07
29383;BME280;16365;51.598;7.668;2023-03-16T07:56:59;101097.59;;;12.52;41.21
29383;BME280;16365;51.598;7.668;2023-03-16T07:59:26;101097.41;;;12.57;41.10
29383;BME280;16365;51.598;7.668;2023-03-16T08:01:54;101095.28;;;12.63;41.54
29383;BME280;16365;51.598;7.668;2023-03-16T08:04:21;101093.94;;;12.69;40.46
29383;BME280;16365;51.598;7.668;2023-03-16T08:06:47;101092.59;;;12.75;40.39
29383;BME280;16365;51.598;7.668;2023-03-16T08:09:13;101092.91;;;12.82;40.79
29383;BME280;16365;51.598;7.668;2023-03-16T08:11:40;101089.44;;;12.85;39.75
29383;BME280;16365;51.598;7.668;2023-03-16T08:14:06;101082.88;;;12.90;39.87
29383;BME280;16365;51.598;7.668;2023-03-16T08:16:34;101095.31;;;12.93;40.29
29383;BME280;16365;51.598;7.668;2023-03-16T08:19:02;101088.25;;;12.95;40.01
29383;BME280;16365;51.598;7.668;2023-03-16T08:21:29;101079.91;;;12.95;39.92
29383;BME280;16365;51.598;7.668;2023-03-16T08:23:56;101089.56;;;12.98;40.53
29383;BME280;16365;51.598;7.668;2023-03-16T08:26:23;101087.59;;;12.98;39.54
29383;BME280;16365;51.598;7.668;2023-03-16T08:28:49;101085.28;;;13.00;39.15
29383;BME280;16365;51.598;7.668;2023-03-16T08:31:17;101083.00;;;13.02;38.83
29383;BME280;16365;51.598;7.668;2023-03-16T08:33:45;101076.06;;;13.08;40.26
29383;BME280;16365;51.598;7.668;2023-03-16T08:36:14;101077.19;;;13.16;39.64
29383;BME280;16365;51.598;7.668;2023-03-16T08:38:41;101083.88;;;13.24;39.09
29383;BME280;16365;51.598;7.668;2023-03-16T08:41:13;101077.78;;;13.30;39.15
29383;BME280;16365;51.598;7.668;2023-03-16T08:43:42;101076.44;;;13.36;38.92
29383;BME280;16365;51.598;7.668;2023-03-16T08:46:10;101077.38;;;13.41;38.60
29383;BME280;16365;51.598;7.668;2023-03-16T08:48:39;101077.53;;;13.44;38.58
29383;BME280;16365;51.598;7.668;2023-03-16T08:51:07;101076.84;;;13.47;38.70
29383;BME280;16365;51.598;7.668;2023-03-16T08:53:35;101083.03;;;13.53;38.22
29383;BME280;16365;51.598;7.668;2023-03-16T08:56:03;101079.22;;;13.57;37.93
29383;BME280;16365;51.598;7.668;2023-03-16T08:58:31;101087.06;;;13.64;38.13
29383;BME280;16365;51.598;7.668;2023-03-16T09:00:59;101085.81;;;13.74;38.46
29383;BME280;16365;51.598;7.668;2023-03-16T09:03:25;101088.88;;;13.81;38.10
29383;BME280;16365;51.598;7.668;2023-03-16T09:05:52;101072.06;;;13.89;38.01
29383;BME280;16365;51.598;7.668;2023-03-16T09:08:19;101076.41;;;13.99;38.98
29383;BME280;16365;51.598;7.668;2023-03-16T09:10:45;101081.56;;;14.09;38.38
29383;BME280;16365;51.598;7.668;2023-03-16T09:13:12;101081.50;;;14.18;38.82
29383;BME280;16365;51.598;7.668;2023-03-16T09:15:38;101088.13;;;14.26;38.03
29383;BME280;16365;51.598;7.668;2023-03-16T09:18:04;101093.63;;;14.34;37.93
29383;BME280;16365;51.598;7.668;2023-03-16T09:20:30;101095.00;;;14.40;38.30
29383;BME280;16365;51.598;7.668;2023-03-16T09:22:58;101087.28;;;14.46;37.76
29383;BME280;16365;51.598;7.668;2023-03-16T09:25:25;101080.69;;;14.51;36.68
29383;BME280;16365;51.598;7.668;2023-03-16T09:27:52;101086.38;;;14.54;36.46
29383;BME280;16365;51.598;7.668;2023-03-16T09:30:18;101095.22;;;14.56;37.44
29383;BME280;16365;51.598;7.668;2023-03-16T09:32:46;101091.63;;;14.56;37.66
29383;BME280;16365;51.598;7.668;2023-03-16T09:35:14;101093.59;;;14.55;35.86
29383;BME280;16365;51.598;7.668;2023-03-16T09:37:41;101096.03;;;14.57;37.32
29383;BME280;16365;51.598;7.668;2023-03-16T09:40:23;101100.00;;;14.56;37.30
29383;BME280;16365;51.598;7.668;2023-03-16T09:45:27;101089.66;;;14.56;37.66
29383;BME280;16365;51.598;7.668;2023-03-16T09:47:57;101105.22;;;14.57;37.83
29383;BME280;16365;51.598;7.668;2023-03-16T09:50:28;101106.38;;;14.56;36.76
29383;BME280;16365;51.598;7.668;2023-03-16T09:55:40;101104.41;;;14.57;37.53
29383;BME280;16365;51.598;7.668;2023-03-16T09:58:18;101098.81;;;14.57;38.03
29383;BME280;16365;51.598;7.668;2023-03-16T10:06:00;101101.97;;;14.55;36.21
29383;BME280;16365;51.598;7.668;2023-03-16T10:08:38;101091.94;;;14.54;36.86
29383;BME280;16365;51.598;7.668;2023-03-16T10:16:22;101096.72;;;14.54;37.32
29383;BME280;16365;51.598;7.668;2023-03-16T10:18:56;101094.41;;;14.56;37.95
29383;BME280;16365;51.598;7.668;2023-03-16T10:21:25;101103.25;;;14.58;37.55
29383;BME280;16365;51.598;7.668;2023-03-16T10:23:54;101104.19;;;14.62;37.73
29383;BME280;16365;51.598;7.668;2023-03-16T10:26:25;101090.00;;;14.67;37.88
29383;BME280;16365;51.598;7.668;2023-03-16T10:28:55;101087.34;;;14.71;37.35
29383;BME280;16365;51.598;7.668;2023-03-16T10:31:26;101091.97;;;14.79;37.32
29383;BME280;16365;51.598;7.668;2023-03-16T10:33:57;101083.06;;;14.85;37.62
29383;BME280;16365;51.598;7.668;2023-03-16T10:36:31;101080.03;;;14.90;36.83
29383;BME280;16365;51.598;7.668;2023-03-16T10:39:04;101086.19;;;14.96;37.34
29383;BME280;16365;51.598;7.668;2023-03-16T10:41:31;101079.22;;;15.02;37.62
29383;BME280;16365;51.598;7.668;2023-03-16T10:44:13;101074.91;;;15.05;36.50
29383;BME280;16365;51.598;7.668;2023-03-16T10:49:21;101074.81;;;15.13;36.88
29383;BME280;16365;51.598;7.668;2023-03-16T10:51:47;101074.56;;;15.19;37.22
29383;BME280;16365;51.598;7.668;2023-03-16T10:54:15;101078.25;;;15.23;37.21
29383;BME280;16365;51.598;7.668;2023-03-16T10:56:42;101083.97;;;15.26;37.19
29383;BME280;16365;51.598;7.668;2023-03-16T10:59:12;101090.47;;;15.30;37.54
29383;BME280;16365;51.598;7.668;2023-03-16T11:01:43;101084.66;;;15.35;37.60
29383;BME280;16365;51.598;7.668;2023-03-16T11:04:13;101075.22;;;15.40;37.46
29383;BME280;16365;51.598;7.668;2023-03-16T11:06:50;101074.16;;;15.45;36.98
29383;BME280;16365;51.598;7.668;2023-03-16T11:09:19;101077.53;;;15.50;37.16
29383;BME280;16365;51.598;7.668;2023-03-16T11:11:49;101070.53;;;15.56;37.42
29383;BME280;16365;51.598;7.668;2023-03-16T11:14:17;101066.66;;;15.61;37.49
29383;BME280;16365;51.598;7.668;2023-03-16T11:16:47;101056.09;;;15.66;37.13
29383;BME280;16365;51.598;7.668;2023-03-16T11:19:17;101043.50;;;15.73;37.44
29383;BME280;16365;51.598;7.668;2023-03-16T11:21:51;101049.66;;;15.78;36.80
29383;BME280;16365;51.598;7.668;2023-03-16T11:24:26;101034.59;;;15.83;37.30
29383;BME280;16365;51.598;7.668;2023-03-16T11:26:56;101026.31;;;15.86;35.81
29383;BME280;16365;51.598;7.668;2023-03-16T11:32:04;101029.69;;;15.92;36.99
29383;BME280;16365;51.598;7.668;2023-03-16T11:34:31;101024.91;;;15.92;36.46
29383;BME280;16365;51.598;7.668;2023-03-16T11:37:09;101021.72;;;15.94;37.31
29383;BME280;16365;51.598;7.668;2023-03-16T11:39:53;101015.81;;;15.96;37.39
29383;BME280;16365;51.598;7.668;2023-03-16T11:42:32;101021.03;;;15.97;36.86
29383;BME280;16365;51.598;7.668;2023-03-16T11:45:09;101001.44;;;15.97;35.94
29383;BME280;16365;51.598;7.668;2023-03-16T11:50:21;100999.47;;;15.98;36.39
29383;BME280;16365;51.598;7.668;2023-03-16T11:55:22;100993.78;;;15.94;37.02
29383;BME280;16365;51.598;7.668;2023-03-16T11:58:00;100984.94;;;15.92;37.01
29383;BME280;16365;51.598;7.668;2023-03-16T12:05:57;100971.56;;;15.85;36.35
29383;BME280;16365;51.598;7.668;2023-03-16T12:08:46;100964.34;;;15.84;36.69
29383;BME280;16365;51.598;7.668;2023-03-16T12:11:26;100969.59;;;15.86;37.16
29383;BME280;16365;51.598;7.668;2023-03-16T12:16:51;100962.56;;;15.92;36.52
29383;BME280;16365;51.598;7.668;2023-03-16T12:19:21;100961.94;;;15.99;36.91
29383;BME280;16365;51.598;7.668;2023-03-16T12:22:01;100947.59;;;16.00;37.06
29383;BME280;16365;51.598;7.668;2023-03-16T12:24:33;100938.22;;;16.08;36.88
29383;BME280;16365;51.598;7.668;2023-03-16T12:27:00;100941.22;;;16.15;36.71
29383;BME280;16365;51.598;7.668;2023-03-16T12:29:28;100940.56;;;16.22;37.13
29383;BME280;16365;51.598;7.668;2023-03-16T12:32:07;100923.16;;;16.29;36.91
29383;BME280;16365;51.598;7.668;2023-03-16T12:34:58;100913.31;;;16.35;35.98
29383;BME280;16365;51.598;7.668;2023-03-16T12:40:18;100910.41;;;16.47;35.56
29383;BME280;16365;51.598;7.668;2023-03-16T12:42:55;100898.22;;;16.55;35.95
29383;BME280;16365;51.598;7.668;2023-03-16T12:48:07;100891.34;;;16.68;36.84
29383;BME280;16365;51.598;7.668;2023-03-16T12:50:34;100875.09;;;16.74;36.70
29383;BME280;16365;51.598;7.668;2023-03-16T12:53:28;100880.03;;;16.81;36.00
29383;BME280;16365;51.598;7.668;2023-03-16T12:56:05;100881.72;;;16.85;36.44
29383;BME280;16365;51.598;7.668;2023-03-16T12:58:33;100881.91;;;16.92;36.42
29383;BME280;16365;51.598;7.668;2023-03-16T13:01:00;100867.59;;;16.98;36.15
29383;BME280;16365;51.598;7.668;2023-03-16T13:03:27;100855.72;;;17.04;36.50
29383;BME280;16365;51.598;7.668;2023-03-16T13:05:55;100858.22;;;17.09;36.20
29383;BME280;16365;51.598;7.668;2023-03-16T13:08:25;100855.94;;;17.15;37.68
29383;BME280;16365;51.598;7.668;2023-03-16T13:11:00;100853.22;;;17.18;36.43
29383;BME280;16365;51.598;7.668;2023-03-16T13:13:31;100852.47;;;17.21;36.31
29383;BME280;16365;51.598;7.668;2023-03-16T13:16:05;100842.50;;;17.24;36.64
29383;BME280;16365;51.598;7.668;2023-03-16T13:18:36;100830.94;;;17.26;35.76
29383;BME280;16365;51.598;7.668;2023-03-16T13:21:17;100824.97;;;17.27;36.50
29383;BME280;16365;51.598;7.668;2023-03-16T13:26:49;100819.41;;;17.31;36.09
29383;BME280;16365;51.598;7.668;2023-03-16T13:31:46;100822.28;;;17.34;36.39
29383;BME280;16365;51.598;7.668;2023-03-16T13:34:14;100806.75;;;17.37;35.70
29383;BME280;16365;51.598;7.668;2023-03-16T13:36:44;100807.16;;;17.39;35.96
29383;BME280;16365;51.598;7.668;2023-03-16T13:41:39;100802.06;;;17.44;36.59
29383;BME280;16365;51.598;7.668;2023-03-16T13:44:12;100794.44;;;17.45;36.34
29383;BME280;16365;51.598;7.668;2023-03-16T13:46:40;100786.03;;;17.45;35.58
29383;BME280;16365;51.598;7.668;2023-03-16T13:49:10;100795.72;;;17.47;35.81
29383;BME280;16365;51.598;7.668;2023-03-16T13:51:38;100795.34;;;17.49;36.02